sensor_id;sensor_type;location;lat;lon;timestamp;P1;durP1;ratioP1;P2;durP2;ratioP2
549;SDS011;20066;48.764;9.176;2024-01-30T00:01:16;16.58;;;6.47;;
549;SDS011;20066;48.764;9.176;2024-01-30T00:03:45;11.98;;;6.70;;
549;SDS011;20066;48.764;9.176;2024-01-30T00:06:14;15.02;;;7.47;;
549;SDS011;20066;48.764;9.176;2024-01-30T00:08:45;25.58;;;7.07;;
549;SDS011;20066;48.764;9.176;2024-01-30T00:11:15;25.38;;;6.80;;
549;SDS011;20066;48.764;9.176;2024-01-30T00:13:44;26.42;;;7.18;;
549;SDS011;20066;48.764;9.176;2024-01-30T00:16:19;26.05;;;7.55;;
549;SDS011;20066;48.764;9.176;2024-01-30T00:18:50;24.88;;;7.22;;
549;SDS011;20066;48.764;9.176;2024-01-30T00:21:20;26.67;;;6.90;;
549;SDS011;20066;48.764;9.176;2024-01-30T00:23:49;27.88;;;7.00;;
549;SDS011;20066;48.764;9.176;2024-01-30T00:26:17;25.83;;;6.55;;
549;SDS011;20066;48.764;9.176;2024-01-30T00:28:47;28.63;;;6.82;;
549;SDS011;20066;48.764;9.176;2024-01-30T00:31:15;27.50;;;6.50;;
549;SDS011;20066;48.764;9.176;2024-01-30T00:33:44;27.70;;;7.10;;
549;SDS011;20066;48.764;9.176;2024-01-30T00:36:12;28.35;;;7.15;;
549;SDS011;20066;48.764;9.176;2024-01-30T00:38:42;27.45;;;6.38;;
549;SDS011;20066;48.764;9.176;2024-01-30T00:41:11;29.48;;;7.15;;
549;SDS011;20066;48.764;9.176;2024-01-30T00:43:40;34.08;;;7.03;;
549;SDS011;20066;48.764;9.176;2024-01-30T00:46:08;29.40;;;7.03;;
549;SDS011;20066;48.764;9.176;2024-01-30T00:48:37;29.60;;;7.30;;
549;SDS011;20066;48.764;9.176;2024-01-30T00:51:05;30.70;;;6.82;;
549;SDS011;20066;48.764;9.176;2024-01-30T00:53:33;33.67;;;7.20;;
549;SDS011;20066;48.764;9.176;2024-01-30T00:56:04;28.55;;;7.20;;
549;SDS011;20066;48.764;9.176;2024-01-30T00:58:32;29.88;;;7.35;;
549;SDS011;20066;48.764;9.176;2024-01-30T01:01:00;32.28;;;7.35;;
549;SDS011;20066;48.764;9.176;2024-01-30T01:03:29;30.33;;;6.68;;
549;SDS011;20066;48.764;9.176;2024-01-30T01:05:58;23.38;;;6.13;;
549;SDS011;20066;48.764;9.176;2024-01-30T01:08:26;26.38;;;6.93;;
549;SDS011;20066;48.764;9.176;2024-01-30T01:10:55;28.38;;;6.78;;
549;SDS011;20066;48.764;9.176;2024-01-30T01:13:25;29.38;;;7.72;;
549;SDS011;20066;48.764;9.176;2024-01-30T01:15:54;24.88;;;6.60;;
549;SDS011;20066;48.764;9.176;2024-01-30T01:18:23;28.50;;;7.28;;
549;SDS011;20066;48.764;9.176;2024-01-30T01:20:52;29.92;;;7.55;;
549;SDS011;20066;48.764;9.176;2024-01-30T01:23:20;26.92;;;6.63;;
549;SDS011;20066;48.764;9.176;2024-01-30T01:25:48;27.98;;;6.07;;
549;SDS011;20066;48.764;9.176;2024-01-30T01:28:16;27.25;;;6.28;;
549;SDS011;20066;48.764;9.176;2024-01-30T01:30:47;29.05;;;6.85;;
549;SDS011;20066;48.764;9.176;2024-01-30T01:33:16;26.65;;;6.47;;
549;SDS011;20066;48.764;9.176;2024-01-30T01:35:45;28.90;;;6.95;;
549;SDS011;20066;48.764;9.176;2024-01-30T01:38:13;27.75;;;6.80;;
549;SDS011;20066;48.764;9.176;2024-01-30T01:40:41;27.27;;;6.40;;
549;SDS011;20066;48.764;9.176;2024-01-30T01:43:11;25.17;;;6.30;;
549;SDS011;20066;48.764;9.176;2024-01-30T01:45:40;30.10;;;6.72;;
549;SDS011;20066;48.764;9.176;2024-01-30T01:48:10;27.23;;;6.97;;
549;SDS011;20066;48.764;9.176;2024-01-30T01:50:41;28.77;;;6.85;;
549;SDS011;20066;48.764;9.176;2024-01-30T01:53:11;26.48;;;6.53;;
549;SDS011;20066;48.764;9.176;2024-01-30T01:55:42;25.27;;;5.85;;
549;SDS011;20066;48.764;9.176;2024-01-30T01:58:11;29.88;;;7.05;;
549;SDS011;20066;48.764;9.176;2024-01-30T02:00:42;24.20;;;6.35;;
549;SDS011;20066;48.764;9.176;2024-01-30T02:03:14;26.25;;;6.35;;
549;SDS011;20066;48.764;9.176;2024-01-30T02:05:48;26.33;;;6.65;;
549;SDS011;20066;48.764;9.176;2024-01-30T02:08:18;26.42;;;7.25;;
549;SDS011;20066;48.764;9.176;2024-01-30T02:10:46;25.63;;;6.53;;
549;SDS011;20066;48.764;9.176;2024-01-30T02:13:16;27.17;;;7.10;;
549;SDS011;20066;48.764;9.176;2024-01-30T02:15:48;25.30;;;6.82;;
549;SDS011;20066;48.764;9.176;2024-01-30T02:18:20;28.50;;;6.97;;
549;SDS011;20066;48.764;9.176;2024-01-30T02:20:50;25.38;;;6.53;;
549;SDS011;20066;48.764;9.176;2024-01-30T02:23:24;28.08;;;7.25;;
549;SDS011;20066;48.764;9.176;2024-01-30T02:25:54;28.23;;;7.15;;
549;SDS011;20066;48.764;9.176;2024-01-30T02:28:24;27.20;;;6.50;;
549;SDS011;20066;48.764;9.176;2024-01-30T02:30:52;25.50;;;6.35;;
549;SDS011;20066;48.764;9.176;2024-01-30T02:33:20;25.50;;;6.40;;
549;SDS011;20066;48.764;9.176;2024-01-30T02:35:49;28.05;;;7.32;;
549;SDS011;20066;48.764;9.176;2024-01-30T02:38:19;24.90;;;6.90;;
549;SDS011;20066;48.764;9.176;2024-01-30T02:40:50;26.70;;;6.43;;
549;SDS011;20066;48.764;9.176;2024-01-30T02:43:20;23.27;;;5.90;;
549;SDS011;20066;48.764;9.176;2024-01-30T02:45:49;24.75;;;6.65;;
549;SDS011;20066;48.764;9.176;2024-01-30T02:48:19;25.80;;;5.97;;
549;SDS011;20066;48.764;9.176;2024-01-30T02:50:48;27.63;;;6.85;;
549;SDS011;20066;48.764;9.176;2024-01-30T02:53:17;27.40;;;7.15;;
549;SDS011;20066;48.764;9.176;2024-01-30T02:55:45;24.27;;;6.45;;
549;SDS011;20066;48.764;9.176;2024-01-30T02:58:16;28.67;;;6.40;;
549;SDS011;20066;48.764;9.176;2024-01-30T03:00:45;25.17;;;7.10;;
549;SDS011;20066;48.764;9.176;2024-01-30T03:03:13;29.85;;;7.93;;
549;SDS011;20066;48.764;9.176;2024-01-30T03:05:42;29.95;;;6.75;;
549;SDS011;20066;48.764;9.176;2024-01-30T03:08:12;26.65;;;7.25;;
549;SDS011;20066;48.764;9.176;2024-01-30T03:10:41;26.70;;;6.07;;
549;SDS011;20066;48.764;9.176;2024-01-30T03:13:11;25.42;;;6.80;;
549;SDS011;20066;48.764;9.176;2024-01-30T03:15:41;25.08;;;6.40;;
549;SDS011;20066;48.764;9.176;2024-01-30T03:18:11;26.13;;;6.35;;
549;SDS011;20066;48.764;9.176;2024-01-30T03:20:40;26.75;;;6.57;;
549;SDS011;20066;48.764;9.176;2024-01-30T03:23:08;26.83;;;6.55;;
549;SDS011;20066;48.764;9.176;2024-01-30T03:25:46;26.95;;;6.65;;
549;SDS011;20066;48.764;9.176;2024-01-30T03:28:15;24.80;;;6.65;;
549;SDS011;20066;48.764;9.176;2024-01-30T03:30:49;26.13;;;6.47;;
549;SDS011;20066;48.764;9.176;2024-01-30T03:33:19;32.17;;;6.53;;
549;SDS011;20066;48.764;9.176;2024-01-30T03:35:48;25.75;;;6.47;;
549;SDS011;20066;48.764;9.176;2024-01-30T03:38:16;29.40;;;6.75;;
549;SDS011;20066;48.764;9.176;2024-01-30T03:40:45;28.75;;;7.28;;
549;SDS011;20066;48.764;9.176;2024-01-30T03:43:14;25.63;;;6.30;;
549;SDS011;20066;48.764;9.176;2024-01-30T03:45:43;24.85;;;6.22;;
549;SDS011;20066;48.764;9.176;2024-01-30T03:48:14;24.73;;;6.35;;
549;SDS011;20066;48.764;9.176;2024-01-30T03:50:43;25.92;;;6.55;;
549;SDS011;20066;48.764;9.176;2024-01-30T03:53:12;26.40;;;6.63;;
549;SDS011;20066;48.764;9.176;2024-01-30T03:55:41;27.67;;;6.47;;
549;SDS011;20066;48.764;9.176;2024-01-30T03:58:10;25.52;;;6.18;;
549;SDS011;20066;48.764;9.176;2024-01-30T04:00:38;26.20;;;6.22;;
549;SDS011;20066;48.764;9.176;2024-01-30T04:03:07;23.98;;;6.03;;
549;SDS011;20066;48.764;9.176;2024-01-30T04:05:37;25.60;;;6.32;;
549;SDS011;20066;48.764;9.176;2024-01-30T04:08:06;23.83;;;6.65;;
549;SDS011;20066;48.764;9.176;2024-01-30T04:10:35;28.20;;;6.78;;
549;SDS011;20066;48.764;9.176;2024-01-30T04:13:05;27.48;;;6.65;;
549;SDS011;20066;48.764;9.176;2024-01-30T04:15:37;25.85;;;6.60;;
549;SDS011;20066;48.764;9.176;2024-01-30T04:18:05;25.58;;;6.20;;
549;SDS011;20066;48.764;9.176;2024-01-30T04:20:34;23.15;;;5.93;;
549;SDS011;20066;48.764;9.176;2024-01-30T04:23:03;24.25;;;6.22;;
549;SDS011;20066;48.764;9.176;2024-01-30T04:25:32;25.20;;;6.30;;
549;SDS011;20066;48.764;9.176;2024-01-30T04:28:00;25.00;;;7.35;;
549;SDS011;20066;48.764;9.176;2024-01-30T04:30:28;26.13;;;7.57;;
549;SDS011;20066;48.764;9.176;2024-01-30T04:32:56;26.00;;;7.47;;
549;SDS011;20066;48.764;9.176;2024-01-30T04:35:24;25.95;;;6.63;;
549;SDS011;20066;48.764;9.176;2024-01-30T04:37:52;25.10;;;7.25;;
549;SDS011;20066;48.764;9.176;2024-01-30T04:40:22;28.10;;;7.65;;
549;SDS011;20066;48.764;9.176;2024-01-30T04:42:51;26.33;;;7.47;;
549;SDS011;20066;48.764;9.176;2024-01-30T04:45:19;28.73;;;7.05;;
549;SDS011;20066;48.764;9.176;2024-01-30T04:47:47;27.60;;;7.20;;
549;SDS011;20066;48.764;9.176;2024-01-30T04:50:17;28.30;;;7.55;;
549;SDS011;20066;48.764;9.176;2024-01-30T04:52:46;27.73;;;8.23;;
549;SDS011;20066;48.764;9.176;2024-01-30T04:55:14;26.38;;;7.57;;
549;SDS011;20066;48.764;9.176;2024-01-30T04:57:50;26.98;;;7.43;;
549;SDS011;20066;48.764;9.176;2024-01-30T05:00:18;26.60;;;7.28;;
549;SDS011;20066;48.764;9.176;2024-01-30T05:02:47;29.90;;;7.93;;
549;SDS011;20066;48.764;9.176;2024-01-30T05:05:15;26.48;;;6.45;;
549;SDS011;20066;48.764;9.176;2024-01-30T05:08:01;34.42;;;7.38;;
549;SDS011;20066;48.764;9.176;2024-01-30T05:10:30;28.77;;;7.20;;
549;SDS011;20066;48.764;9.176;2024-01-30T05:13:00;30.83;;;7.15;;
549;SDS011;20066;48.764;9.176;2024-01-30T05:15:29;25.52;;;6.68;;
549;SDS011;20066;48.764;9.176;2024-01-30T05:17:57;26.15;;;6.57;;
549;SDS011;20066;48.764;9.176;2024-01-30T05:20:26;29.30;;;7.47;;
549;SDS011;20066;48.764;9.176;2024-01-30T05:22:55;26.65;;;6.75;;
549;SDS011;20066;48.764;9.176;2024-01-30T05:25:24;24.80;;;6.70;;
549;SDS011;20066;48.764;9.176;2024-01-30T05:27:54;24.75;;;7.28;;
549;SDS011;20066;48.764;9.176;2024-01-30T05:30:26;25.73;;;6.93;;
549;SDS011;20066;48.764;9.176;2024-01-30T05:32:54;25.10;;;6.80;;
549;SDS011;20066;48.764;9.176;2024-01-30T05:35:22;25.02;;;6.60;;
549;SDS011;20066;48.764;9.176;2024-01-30T05:37:50;31.67;;;7.20;;
549;SDS011;20066;48.764;9.176;2024-01-30T05:40:18;28.85;;;8.10;;
549;SDS011;20066;48.764;9.176;2024-01-30T05:42:47;28.65;;;7.90;;
549;SDS011;20066;48.764;9.176;2024-01-30T05:45:15;26.75;;;8.13;;
549;SDS011;20066;48.764;9.176;2024-01-30T05:47:45;26.77;;;8.05;;
549;SDS011;20066;48.764;9.176;2024-01-30T05:52:43;30.77;;;8.38;;
549;SDS011;20066;48.764;9.176;2024-01-30T05:55:11;29.05;;;7.40;;
549;SDS011;20066;48.764;9.176;2024-01-30T05:57:40;28.17;;;8.25;;
549;SDS011;20066;48.764;9.176;2024-01-30T06:00:08;25.58;;;7.35;;
549;SDS011;20066;48.764;9.176;2024-01-30T06:02:36;25.48;;;7.20;;
549;SDS011;20066;48.764;9.176;2024-01-30T06:05:07;28.60;;;8.18;;
549;SDS011;20066;48.764;9.176;2024-01-30T06:07:36;31.75;;;8.52;;
549;SDS011;20066;48.764;9.176;2024-01-30T06:10:06;31.38;;;8.32;;
549;SDS011;20066;48.764;9.176;2024-01-30T06:12:35;31.58;;;9.38;;
549;SDS011;20066;48.764;9.176;2024-01-30T06:15:03;28.20;;;8.63;;
549;SDS011;20066;48.764;9.176;2024-01-30T06:17:33;30.58;;;8.30;;
549;SDS011;20066;48.764;9.176;2024-01-30T06:20:01;30.75;;;8.63;;
549;SDS011;20066;48.764;9.176;2024-01-30T06:22:30;27.70;;;9.23;;
549;SDS011;20066;48.764;9.176;2024-01-30T06:24:58;27.13;;;7.38;;
549;SDS011;20066;48.764;9.176;2024-01-30T06:27:26;28.27;;;8.20;;
549;SDS011;20066;48.764;9.176;2024-01-30T06:29:55;28.52;;;8.40;;
549;SDS011;20066;48.764;9.176;2024-01-30T06:32:23;28.40;;;8.55;;
549;SDS011;20066;48.764;9.176;2024-01-30T06:34:51;30.60;;;7.85;;
549;SDS011;20066;48.764;9.176;2024-01-30T06:37:20;29.08;;;7.72;;
549;SDS011;20066;48.764;9.176;2024-01-30T06:39:50;29.00;;;9.15;;
549;SDS011;20066;48.764;9.176;2024-01-30T06:42:19;29.50;;;9.48;;
549;SDS011;20066;48.764;9.176;2024-01-30T06:44:47;29.45;;;8.77;;
549;SDS011;20066;48.764;9.176;2024-01-30T06:47:15;25.90;;;8.60;;
549;SDS011;20066;48.764;9.176;2024-01-30T06:49:43;28.00;;;8.45;;
549;SDS011;20066;48.764;9.176;2024-01-30T06:52:11;30.10;;;8.98;;
549;SDS011;20066;48.764;9.176;2024-01-30T06:54:39;28.00;;;8.15;;
549;SDS011;20066;48.764;9.176;2024-01-30T06:57:08;34.25;;;10.27;;
549;SDS011;20066;48.764;9.176;2024-01-30T06:59:38;30.50;;;9.15;;
549;SDS011;20066;48.764;9.176;2024-01-30T07:02:09;34.78;;;9.27;;
549;SDS011;20066;48.764;9.176;2024-01-30T07:04:37;31.45;;;9.10;;
549;SDS011;20066;48.764;9.176;2024-01-30T07:07:11;32.40;;;8.98;;
549;SDS011;20066;48.764;9.176;2024-01-30T07:09:41;29.25;;;8.45;;
549;SDS011;20066;48.764;9.176;2024-01-30T07:12:10;29.10;;;8.80;;
549;SDS011;20066;48.764;9.176;2024-01-30T07:14:38;26.48;;;7.75;;
549;SDS011;20066;48.764;9.176;2024-01-30T07:17:06;27.15;;;7.65;;
549;SDS011;20066;48.764;9.176;2024-01-30T07:19:34;27.55;;;8.63;;
549;SDS011;20066;48.764;9.176;2024-01-30T07:22:02;28.25;;;8.55;;
549;SDS011;20066;48.764;9.176;2024-01-30T07:24:30;25.67;;;8.05;;
549;SDS011;20066;48.764;9.176;2024-01-30T07:26:58;28.20;;;8.18;;
549;SDS011;20066;48.764;9.176;2024-01-30T07:29:27;29.88;;;8.45;;
549;SDS011;20066;48.764;9.176;2024-01-30T07:31:55;30.00;;;8.68;;
549;SDS011;20066;48.764;9.176;2024-01-30T07:34:23;30.75;;;10.73;;
549;SDS011;20066;48.764;9.176;2024-01-30T07:36:51;30.70;;;10.35;;
549;SDS011;20066;48.764;9.176;2024-01-30T07:39:21;32.15;;;9.38;;
549;SDS011;20066;48.764;9.176;2024-01-30T07:41:49;29.63;;;8.65;;
549;SDS011;20066;48.764;9.176;2024-01-30T07:44:17;27.75;;;8.70;;
549;SDS011;20066;48.764;9.176;2024-01-30T07:46:46;30.58;;;9.48;;
549;SDS011;20066;48.764;9.176;2024-01-30T07:49:14;29.20;;;8.90;;
549;SDS011;20066;48.764;9.176;2024-01-30T07:51:42;32.30;;;8.77;;
549;SDS011;20066;48.764;9.176;2024-01-30T07:54:11;31.88;;;8.13;;
549;SDS011;20066;48.764;9.176;2024-01-30T07:56:39;32.95;;;8.00;;
549;SDS011;20066;48.764;9.176;2024-01-30T07:59:09;32.58;;;9.15;;
549;SDS011;20066;48.764;9.176;2024-01-30T08:01:37;34.38;;;8.95;;
549;SDS011;20066;48.764;9.176;2024-01-30T08:04:07;32.95;;;8.50;;
549;SDS011;20066;48.764;9.176;2024-01-30T08:06:35;29.73;;;8.07;;
549;SDS011;20066;48.764;9.176;2024-01-30T08:09:04;31.00;;;8.60;;
549;SDS011;20066;48.764;9.176;2024-01-30T08:11:33;33.35;;;8.77;;
549;SDS011;20066;48.764;9.176;2024-01-30T08:14:01;30.80;;;7.78;;
549;SDS011;20066;48.764;9.176;2024-01-30T08:16:29;29.52;;;8.13;;
549;SDS011;20066;48.764;9.176;2024-01-30T08:18:57;37.55;;;8.65;;
549;SDS011;20066;48.764;9.176;2024-01-30T08:21:27;31.48;;;7.57;;
549;SDS011;20066;48.764;9.176;2024-01-30T08:23:54;34.10;;;9.25;;
549;SDS011;20066;48.764;9.176;2024-01-30T08:26:22;35.30;;;10.50;;
549;SDS011;20066;48.764;9.176;2024-01-30T08:28:50;35.45;;;8.35;;
549;SDS011;20066;48.764;9.176;2024-01-30T08:31:20;36.45;;;10.15;;
549;SDS011;20066;48.764;9.176;2024-01-30T08:33:48;34.35;;;8.65;;
549;SDS011;20066;48.764;9.176;2024-01-30T08:36:16;38.00;;;10.65;;
549;SDS011;20066;48.764;9.176;2024-01-30T08:38:46;41.72;;;10.90;;
549;SDS011;20066;48.764;9.176;2024-01-30T08:41:14;38.60;;;10.50;;
549;SDS011;20066;48.764;9.176;2024-01-30T08:43:42;35.75;;;9.70;;
549;SDS011;20066;48.764;9.176;2024-01-30T08:46:11;35.75;;;9.70;;
549;SDS011;20066;48.764;9.176;2024-01-30T08:48:39;44.65;;;10.15;;
549;SDS011;20066;48.764;9.176;2024-01-30T08:51:07;32.63;;;8.38;;
549;SDS011;20066;48.764;9.176;2024-01-30T08:53:35;34.20;;;7.90;;
549;SDS011;20066;48.764;9.176;2024-01-30T08:56:05;32.28;;;8.27;;
549;SDS011;20066;48.764;9.176;2024-01-30T08:58:34;34.17;;;8.68;;
549;SDS011;20066;48.764;9.176;2024-01-30T09:01:03;34.03;;;8.95;;
549;SDS011;20066;48.764;9.176;2024-01-30T09:03:32;39.95;;;9.02;;
549;SDS011;20066;48.764;9.176;2024-01-30T09:06:00;33.97;;;8.70;;
549;SDS011;20066;48.764;9.176;2024-01-30T09:08:28;29.90;;;8.85;;
549;SDS011;20066;48.764;9.176;2024-01-30T09:10:55;26.48;;;7.97;;
549;SDS011;20066;48.764;9.176;2024-01-30T09:13:25;28.05;;;8.82;;
549;SDS011;20066;48.764;9.176;2024-01-30T09:15:53;27.35;;;9.07;;
549;SDS011;20066;48.764;9.176;2024-01-30T09:18:22;20.70;;;8.93;;
549;SDS011;20066;48.764;9.176;2024-01-30T09:20:50;18.80;;;8.20;;
549;SDS011;20066;48.764;9.176;2024-01-30T09:23:17;17.47;;;8.70;;
549;SDS011;20066;48.764;9.176;2024-01-30T09:25:46;13.73;;;8.40;;
549;SDS011;20066;48.764;9.176;2024-01-30T09:28:13;18.00;;;9.37;;
549;SDS011;20066;48.764;9.176;2024-01-30T09:30:43;18.90;;;10.13;;
549;SDS011;20066;48.764;9.176;2024-01-30T09:33:11;21.13;;;9.40;;
549;SDS011;20066;48.764;9.176;2024-01-30T09:35:39;24.60;;;10.83;;
549;SDS011;20066;48.764;9.176;2024-01-30T09:38:07;34.10;;;12.13;;
549;SDS011;20066;48.764;9.176;2024-01-30T09:40:35;29.17;;;12.00;;
549;SDS011;20066;48.764;9.176;2024-01-30T09:43:03;30.07;;;12.00;;
549;SDS011;20066;48.764;9.176;2024-01-30T09:45:31;28.53;;;12.13;;
549;SDS011;20066;48.764;9.176;2024-01-30T09:48:02;22.80;;;10.93;;
549;SDS011;20066;48.764;9.176;2024-01-30T09:50:31;21.03;;;11.10;;
549;SDS011;20066;48.764;9.176;2024-01-30T09:53:02;22.33;;;10.27;;
549;SDS011;20066;48.764;9.176;2024-01-30T09:55:31;19.50;;;10.17;;
549;SDS011;20066;48.764;9.176;2024-01-30T09:58:03;22.07;;;9.93;;
549;SDS011;20066;48.764;9.176;2024-01-30T10:00:30;31.50;;;11.77;;
549;SDS011;20066;48.764;9.176;2024-01-30T10:03:01;20.80;;;10.33;;
549;SDS011;20066;48.764;9.176;2024-01-30T10:05:31;19.63;;;10.00;;
549;SDS011;20066;48.764;9.176;2024-01-30T10:08:00;20.73;;;9.90;;
549;SDS011;20066;48.764;9.176;2024-01-30T10:10:29;16.00;;;10.00;;
549;SDS011;20066;48.764;9.176;2024-01-30T10:12:57;21.90;;;10.90;;
549;SDS011;20066;48.764;9.176;2024-01-30T10:15:28;21.20;;;11.17;;
549;SDS011;20066;48.764;9.176;2024-01-30T10:17:56;21.30;;;10.87;;
549;SDS011;20066;48.764;9.176;2024-01-30T10:20:26;18.53;;;10.03;;
549;SDS011;20066;48.764;9.176;2024-01-30T10:22:54;18.07;;;11.07;;
549;SDS011;20066;48.764;9.176;2024-01-30T10:25:22;18.03;;;10.17;;
549;SDS011;20066;48.764;9.176;2024-01-30T10:27:52;18.33;;;10.27;;
549;SDS011;20066;48.764;9.176;2024-01-30T10:30:21;18.70;;;10.90;;
549;SDS011;20066;48.764;9.176;2024-01-30T10:32:49;23.30;;;12.60;;
549;SDS011;20066;48.764;9.176;2024-01-30T10:35:18;20.90;;;11.80;;
549;SDS011;20066;48.764;9.176;2024-01-30T10:37:48;24.47;;;13.47;;
549;SDS011;20066;48.764;9.176;2024-01-30T10:40:16;25.73;;;12.57;;
549;SDS011;20066;48.764;9.176;2024-01-30T10:42:44;27.13;;;12.50;;
549;SDS011;20066;48.764;9.176;2024-01-30T10:45:13;27.37;;;12.90;;
549;SDS011;20066;48.764;9.176;2024-01-30T10:47:43;20.93;;;11.30;;
549;SDS011;20066;48.764;9.176;2024-01-30T10:50:16;19.80;;;11.70;;
549;SDS011;20066;48.764;9.176;2024-01-30T10:52:44;19.37;;;11.20;;
549;SDS011;20066;48.764;9.176;2024-01-30T10:55:14;24.53;;;12.60;;
549;SDS011;20066;48.764;9.176;2024-01-30T10:57:44;23.90;;;12.80;;
549;SDS011;20066;48.764;9.176;2024-01-30T11:00:12;19.80;;;12.07;;
549;SDS011;20066;48.764;9.176;2024-01-30T11:02:43;23.00;;;12.33;;
549;SDS011;20066;48.764;9.176;2024-01-30T11:05:12;21.93;;;11.53;;
549;SDS011;20066;48.764;9.176;2024-01-30T11:07:42;24.23;;;12.30;;
549;SDS011;20066;48.764;9.176;2024-01-30T11:10:11;25.10;;;11.90;;
549;SDS011;20066;48.764;9.176;2024-01-30T11:12:45;23.07;;;11.43;;
549;SDS011;20066;48.764;9.176;2024-01-30T11:15:14;22.80;;;11.90;;
549;SDS011;20066;48.764;9.176;2024-01-30T11:17:44;26.67;;;12.30;;
549;SDS011;20066;48.764;9.176;2024-01-30T11:20:14;38.40;;;12.73;;
549;SDS011;20066;48.764;9.176;2024-01-30T11:22:44;24.80;;;11.93;;
549;SDS011;20066;48.764;9.176;2024-01-30T11:25:13;20.50;;;11.97;;
549;SDS011;20066;48.764;9.176;2024-01-30T11:27:43;24.07;;;11.70;;
549;SDS011;20066;48.764;9.176;2024-01-30T11:30:20;24.00;;;12.20;;
549;SDS011;20066;48.764;9.176;2024-01-30T11:33:00;22.60;;;11.93;;
549;SDS011;20066;48.764;9.176;2024-01-30T11:35:34;22.53;;;12.50;;
549;SDS011;20066;48.764;9.176;2024-01-30T11:38:04;28.03;;;12.77;;
549;SDS011;20066;48.764;9.176;2024-01-30T11:40:34;28.93;;;11.97;;
549;SDS011;20066;48.764;9.176;2024-01-30T11:43:06;21.90;;;11.67;;
549;SDS011;20066;48.764;9.176;2024-01-30T11:45:35;23.47;;;12.93;;
549;SDS011;20066;48.764;9.176;2024-01-30T11:48:04;23.70;;;11.57;;
549;SDS011;20066;48.764;9.176;2024-01-30T11:50:34;25.93;;;11.37;;
549;SDS011;20066;48.764;9.176;2024-01-30T11:53:17;29.60;;;13.60;;
549;SDS011;20066;48.764;9.176;2024-01-30T11:55:49;30.50;;;13.30;;
549;SDS011;20066;48.764;9.176;2024-01-30T11:58:17;21.53;;;11.90;;
549;SDS011;20066;48.764;9.176;2024-01-30T12:00:52;31.30;;;12.17;;
549;SDS011;20066;48.764;9.176;2024-01-30T12:03:22;25.73;;;12.70;;
549;SDS011;20066;48.764;9.176;2024-01-30T12:05:54;32.47;;;12.70;;
549;SDS011;20066;48.764;9.176;2024-01-30T12:08:25;32.27;;;13.67;;
549;SDS011;20066;48.764;9.176;2024-01-30T12:10:56;25.00;;;12.87;;
549;SDS011;20066;48.764;9.176;2024-01-30T12:13:28;25.87;;;11.57;;
549;SDS011;20066;48.764;9.176;2024-01-30T12:15:59;25.07;;;12.43;;
549;SDS011;20066;48.764;9.176;2024-01-30T12:18:27;27.43;;;12.03;;
549;SDS011;20066;48.764;9.176;2024-01-30T12:20:58;23.43;;;11.60;;
549;SDS011;20066;48.764;9.176;2024-01-30T12:23:28;31.30;;;12.20;;
549;SDS011;20066;48.764;9.176;2024-01-30T12:25:56;29.30;;;12.13;;
549;SDS011;20066;48.764;9.176;2024-01-30T12:28:25;24.87;;;11.60;;
549;SDS011;20066;48.764;9.176;2024-01-30T12:30:55;35.30;;;12.43;;
549;SDS011;20066;48.764;9.176;2024-01-30T12:33:26;26.20;;;12.10;;
549;SDS011;20066;48.764;9.176;2024-01-30T12:35:54;32.13;;;12.50;;
549;SDS011;20066;48.764;9.176;2024-01-30T12:38:30;25.43;;;12.63;;
549;SDS011;20066;48.764;9.176;2024-01-30T12:40:58;26.77;;;11.43;;
549;SDS011;20066;48.764;9.176;2024-01-30T12:43:26;22.63;;;11.30;;
549;SDS011;20066;48.764;9.176;2024-01-30T12:46:04;21.57;;;11.00;;
549;SDS011;20066;48.764;9.176;2024-01-30T12:48:33;22.50;;;11.20;;
549;SDS011;20066;48.764;9.176;2024-01-30T12:51:01;28.30;;;11.30;;
549;SDS011;20066;48.764;9.176;2024-01-30T12:53:30;25.23;;;11.17;;
549;SDS011;20066;48.764;9.176;2024-01-30T12:55:59;22.70;;;10.33;;
549;SDS011;20066;48.764;9.176;2024-01-30T12:58:26;24.50;;;9.87;;
549;SDS011;20066;48.764;9.176;2024-01-30T13:00:54;22.00;;;10.73;;
549;SDS011;20066;48.764;9.176;2024-01-30T13:03:29;23.60;;;10.30;;
549;SDS011;20066;48.764;9.176;2024-01-30T13:05:57;21.60;;;10.33;;
549;SDS011;20066;48.764;9.176;2024-01-30T13:08:25;21.33;;;10.90;;
549;SDS011;20066;48.764;9.176;2024-01-30T13:10:55;27.73;;;10.33;;
549;SDS011;20066;48.764;9.176;2024-01-30T13:13:22;28.27;;;10.77;;
549;SDS011;20066;48.764;9.176;2024-01-30T13:15:51;28.17;;;11.27;;
549;SDS011;20066;48.764;9.176;2024-01-30T13:18:19;19.93;;;9.93;;
549;SDS011;20066;48.764;9.176;2024-01-30T13:20:47;29.57;;;10.87;;
549;SDS011;20066;48.764;9.176;2024-01-30T13:23:15;19.50;;;10.20;;
549;SDS011;20066;48.764;9.176;2024-01-30T13:25:43;19.90;;;9.90;;
549;SDS011;20066;48.764;9.176;2024-01-30T13:28:12;23.17;;;9.87;;
549;SDS011;20066;48.764;9.176;2024-01-30T13:30:40;32.03;;;10.50;;
549;SDS011;20066;48.764;9.176;2024-01-30T13:33:08;25.40;;;11.40;;
549;SDS011;20066;48.764;9.176;2024-01-30T13:35:36;26.53;;;10.50;;
549;SDS011;20066;48.764;9.176;2024-01-30T13:38:04;26.10;;;10.00;;
549;SDS011;20066;48.764;9.176;2024-01-30T13:40:32;31.10;;;11.20;;
549;SDS011;20066;48.764;9.176;2024-01-30T13:43:00;19.13;;;9.20;;
549;SDS011;20066;48.764;9.176;2024-01-30T13:45:29;20.00;;;9.70;;
549;SDS011;20066;48.764;9.176;2024-01-30T13:47:57;17.27;;;9.63;;
549;SDS011;20066;48.764;9.176;2024-01-30T13:50:26;24.03;;;10.33;;
549;SDS011;20066;48.764;9.176;2024-01-30T13:52:54;25.83;;;10.50;;
549;SDS011;20066;48.764;9.176;2024-01-30T13:55:24;27.63;;;10.33;;
549;SDS011;20066;48.764;9.176;2024-01-30T13:57:52;20.30;;;8.63;;
549;SDS011;20066;48.764;9.176;2024-01-30T14:00:20;16.27;;;8.80;;
549;SDS011;20066;48.764;9.176;2024-01-30T14:02:50;24.63;;;9.20;;
549;SDS011;20066;48.764;9.176;2024-01-30T14:05:20;20.87;;;9.43;;
549;SDS011;20066;48.764;9.176;2024-01-30T14:07:49;17.07;;;9.27;;
549;SDS011;20066;48.764;9.176;2024-01-30T14:10:18;17.80;;;8.97;;
549;SDS011;20066;48.764;9.176;2024-01-30T14:12:46;16.50;;;9.07;;
549;SDS011;20066;48.764;9.176;2024-01-30T14:15:14;19.77;;;8.97;;
549;SDS011;20066;48.764;9.176;2024-01-30T14:17:55;25.00;;;9.67;;
549;SDS011;20066;48.764;9.176;2024-01-30T14:20:25;27.73;;;9.77;;
549;SDS011;20066;48.764;9.176;2024-01-30T14:22:53;18.53;;;8.90;;
549;SDS011;20066;48.764;9.176;2024-01-30T14:25:22;25.80;;;9.97;;
549;SDS011;20066;48.764;9.176;2024-01-30T14:27:51;16.40;;;9.50;;
549;SDS011;20066;48.764;9.176;2024-01-30T14:30:19;30.70;;;10.67;;
549;SDS011;20066;48.764;9.176;2024-01-30T14:32:47;24.97;;;11.10;;
549;SDS011;20066;48.764;9.176;2024-01-30T14:35:17;22.43;;;10.67;;
549;SDS011;20066;48.764;9.176;2024-01-30T14:37:46;24.70;;;10.77;;
549;SDS011;20066;48.764;9.176;2024-01-30T14:40:13;25.90;;;10.57;;
549;SDS011;20066;48.764;9.176;2024-01-30T14:42:44;27.83;;;11.13;;
549;SDS011;20066;48.764;9.176;2024-01-30T14:45:12;21.90;;;10.00;;
549;SDS011;20066;48.764;9.176;2024-01-30T14:47:40;27.83;;;10.33;;
549;SDS011;20066;48.764;9.176;2024-01-30T14:50:11;22.47;;;10.87;;
549;SDS011;20066;48.764;9.176;2024-01-30T14:52:40;24.70;;;11.00;;
549;SDS011;20066;48.764;9.176;2024-01-30T14:55:08;22.63;;;11.07;;
549;SDS011;20066;48.764;9.176;2024-01-30T14:57:36;22.30;;;11.20;;
549;SDS011;20066;48.764;9.176;2024-01-30T15:00:05;25.00;;;11.37;;
549;SDS011;20066;48.764;9.176;2024-01-30T15:02:35;22.77;;;11.00;;
549;SDS011;20066;48.764;9.176;2024-01-30T15:05:03;27.10;;;11.70;;
549;SDS011;20066;48.764;9.176;2024-01-30T15:07:33;26.77;;;11.30;;
549;SDS011;20066;48.764;9.176;2024-01-30T15:10:08;21.80;;;9.90;;
549;SDS011;20066;48.764;9.176;2024-01-30T15:12:37;29.37;;;11.23;;